createdAt,value
2019-02-19T00:01:22.032Z,4.30
2019-02-19T00:03:52.423Z,4.30
2019-02-19T00:06:22.884Z,4.30
2019-02-19T00:08:54.875Z,4.20
2019-02-19T00:11:25.241Z,4.20
2019-02-19T00:13:55.558Z,4.20
2019-02-19T00:16:26.051Z,4.20
2019-02-19T00:18:56.481Z,4.20
2019-02-19T00:21:26.842Z,4.20
2019-02-19T00:23:57.169Z,4.10
2019-02-19T00:26:27.518Z,4.00
2019-02-19T00:28:57.832Z,4.00
2019-02-19T00:31:28.198Z,4.00
2019-02-19T00:33:58.589Z,4.00
2019-02-19T00:36:28.955Z,4.00
2019-02-19T00:38:59.399Z,4.10
2019-02-19T00:41:29.807Z,4.10
2019-02-19T00:44:00.134Z,4.10
2019-02-19T00:46:30.518Z,4.10
2019-02-19T00:49:00.840Z,4.10
2019-02-19T00:51:31.174Z,4.00
2019-02-19T00:54:01.552Z,4.00
2019-02-19T00:56:31.874Z,4.00
2019-02-19T00:59:02.250Z,4.00
2019-02-19T01:01:32.577Z,4.00
2019-02-19T01:04:03.124Z,3.90
2019-02-19T01:06:33.468Z,3.90
2019-02-19T01:09:05.242Z,3.80
2019-02-19T01:11:35.864Z,3.80
2019-02-19T01:14:06.447Z,3.80
2019-02-19T01:16:36.835Z,3.80
2019-02-19T01:19:07.269Z,3.70
2019-02-19T01:21:37.707Z,3.70
2019-02-19T01:24:08.115Z,3.70
2019-02-19T01:26:38.477Z,3.70
2019-02-19T01:29:08.823Z,3.70
2019-02-19T01:31:39.302Z,3.80
2019-02-19T01:34:09.794Z,3.80
2019-02-19T01:36:40.851Z,3.90
2019-02-19T01:39:11.387Z,4.00
2019-02-19T01:41:41.789Z,4.10
2019-02-19T01:44:12.290Z,4.20
2019-02-19T01:46:42.881Z,4.30
2019-02-19T01:49:13.193Z,4.40
2019-02-19T01:51:43.821Z,4.50
2019-02-19T01:54:14.274Z,4.50
2019-02-19T01:56:44.581Z,4.60
2019-02-19T01:59:14.999Z,4.60
2019-02-19T02:01:45.642Z,4.60
2019-02-19T02:04:15.969Z,4.60
2019-02-19T02:06:46.282Z,4.60
2019-02-19T02:09:16.626Z,4.60
2019-02-19T02:11:47.028Z,4.60
2019-02-19T02:14:17.466Z,4.60
2019-02-19T02:16:47.788Z,4.60
2019-02-19T02:19:18.220Z,4.60
2019-02-19T02:21:48.977Z,4.70
2019-02-19T02:24:19.282Z,4.70
2019-02-19T02:26:49.831Z,4.80
2019-02-19T02:29:20.186Z,4.80
2019-02-19T02:31:50.627Z,4.90
2019-02-19T02:34:21.083Z,5.00
2019-02-19T02:36:51.678Z,5.00
2019-02-19T02:39:22.019Z,5.10
2019-02-19T02:41:52.616Z,5.20
2019-02-19T02:44:22.972Z,5.10
2019-02-19T02:46:53.477Z,5.10
2019-02-19T02:49:23.945Z,5.10
2019-02-19T02:51:54.359Z,5.10
2019-02-19T02:54:24.971Z,5.00
2019-02-19T02:56:55.453Z,5.00
2019-02-19T02:59:25.964Z,5.10
2019-02-19T03:01:56.376Z,5.00
2019-02-19T03:04:26.743Z,5.00
2019-02-19T03:07:11.642Z,5.00
2019-02-19T03:09:41.995Z,4.90
2019-02-19T03:12:12.398Z,4.90
2019-02-19T03:14:42.739Z,5.00
2019-02-19T03:17:13.059Z,4.90
2019-02-19T03:19:43.546Z,4.90
2019-02-19T03:22:13.914Z,4.90
2019-02-19T03:24:44.330Z,5.00
2019-02-19T03:27:14.651Z,5.00
2019-02-19T03:29:45.071Z,5.20
2019-02-19T03:32:15.385Z,5.30
2019-02-19T03:34:45.732Z,5.50
2019-02-19T03:37:16.056Z,5.70
2019-02-19T03:39:47.352Z,5.80
2019-02-19T03:42:18.187Z,5.90
2019-02-19T03:44:48.810Z,6.00
2019-02-19T03:47:19.317Z,6.00
2019-02-19T03:49:49.886Z,6.00
2019-02-19T03:52:20.232Z,6.00
2019-02-19T03:54:50.570Z,6.00
2019-02-19T03:57:20.914Z,6.00
2019-02-19T03:59:51.367Z,6.00
2019-02-19T04:02:21.660Z,6.10
2019-02-19T04:04:52.118Z,6.10
2019-02-19T04:07:22.447Z,6.20
2019-02-19T04:09:52.788Z,6.20
2019-02-19T04:12:23.527Z,6.30
2019-02-19T04:14:53.874Z,6.30
2019-02-19T04:17:24.181Z,6.30
2019-02-19T04:19:54.522Z,6.30
2019-02-19T04:22:24.855Z,6.30
2019-02-19T04:24:55.200Z,6.30
2019-02-19T04:27:25.500Z,6.40
2019-02-19T04:29:55.873Z,6.40
2019-02-19T04:32:26.195Z,6.40
2019-02-19T04:34:56.535Z,6.50
2019-02-19T04:37:26.856Z,6.50
2019-02-19T04:39:57.209Z,6.50
2019-02-19T04:42:27.565Z,6.50
2019-02-19T04:44:57.901Z,6.40
2019-02-19T04:47:28.406Z,6.40
2019-02-19T04:49:58.751Z,6.40
2019-02-19T04:52:29.070Z,6.40
2019-02-19T04:54:59.438Z,6.50
2019-02-19T04:57:29.783Z,6.50
2019-02-19T05:00:00.346Z,6.60
2019-02-19T05:02:31.459Z,6.60
2019-02-19T05:05:01.836Z,6.70
2019-02-19T05:07:32.242Z,6.70
2019-02-19T05:10:02.601Z,6.70
2019-02-19T05:12:34.007Z,6.80
2019-02-19T05:15:04.500Z,6.80
2019-02-19T05:17:34.825Z,6.90
2019-02-19T05:20:06.024Z,6.90
2019-02-19T05:22:36.346Z,7.00
2019-02-19T05:25:07.092Z,7.00
2019-02-19T05:27:37.430Z,7.10
2019-02-19T05:30:08.298Z,7.10
2019-02-19T05:32:38.625Z,7.20
2019-02-19T05:35:09.016Z,7.20
2019-02-19T05:37:39.335Z,7.30
2019-02-19T05:40:10.280Z,7.40
2019-02-19T05:42:40.609Z,7.40
2019-02-19T05:45:11.116Z,7.50
2019-02-19T05:47:41.464Z,7.50
2019-02-19T05:50:12.138Z,7.50
2019-02-19T05:52:42.448Z,7.50
2019-02-19T05:55:12.947Z,7.50
2019-02-19T05:57:43.261Z,7.40
2019-02-19T06:00:14.500Z,7.40
2019-02-19T06:02:44.851Z,7.30
2019-02-19T06:05:15.186Z,7.30
2019-02-19T06:07:45.516Z,7.30
2019-02-19T06:10:15.872Z,7.20
2019-02-19T06:12:46.188Z,7.20
2019-02-19T06:15:16.623Z,7.10
2019-02-19T06:17:46.938Z,7.10
2019-02-19T06:20:17.370Z,7.10
2019-02-19T06:22:47.684Z,7.10
2019-02-19T06:25:18.144Z,7.20
2019-02-19T06:27:48.443Z,7.30
2019-02-19T06:30:18.788Z,7.30
2019-02-19T06:32:49.114Z,7.40
2019-02-19T06:35:19.470Z,7.30
2019-02-19T06:37:49.798Z,7.30
2019-02-19T06:40:30.005Z,7.30
2019-02-19T06:43:00.338Z,7.30
2019-02-19T06:45:30.694Z,7.20
2019-02-19T06:48:01.029Z,7.20
2019-02-19T06:50:31.798Z,7.10
2019-02-19T06:53:02.152Z,7.20
2019-02-19T06:55:32.519Z,7.30
2019-02-19T06:58:02.929Z,7.30
2019-02-19T07:00:33.275Z,7.40
2019-02-19T07:03:21.256Z,7.50
2019-02-19T07:05:51.626Z,7.50
2019-02-19T07:08:21.979Z,7.50
2019-02-19T07:10:52.327Z,7.60
2019-02-19T07:13:22.651Z,7.60
2019-02-19T07:15:53.038Z,7.70
2019-02-19T07:18:23.375Z,7.80
2019-02-19T07:20:53.753Z,7.90
2019-02-19T07:23:24.086Z,8.00
2019-02-19T07:25:54.470Z,8.10
2019-02-19T07:28:24.786Z,8.20
2019-02-19T07:30:55.155Z,8.30
2019-02-19T07:33:25.485Z,8.30
2019-02-19T07:35:55.837Z,8.30
2019-02-19T07:38:26.161Z,8.40
2019-02-19T07:40:56.546Z,8.40
2019-02-19T07:43:26.920Z,8.40
2019-02-19T07:45:57.639Z,8.40
2019-02-19T07:48:28.889Z,8.40
2019-02-19T07:50:59.283Z,8.40
2019-02-19T07:53:29.644Z,8.50
2019-02-19T07:55:59.954Z,8.50
2019-02-19T07:58:30.686Z,8.60
2019-02-19T08:01:01.189Z,8.60
2019-02-19T08:03:31.794Z,8.70
2019-02-19T08:06:02.501Z,8.80
2019-02-19T08:08:33.063Z,8.80
2019-02-19T08:11:03.575Z,8.90
2019-02-19T08:13:34.135Z,8.90
2019-02-19T08:16:07.762Z,9.00
2019-02-19T08:18:38.273Z,9.10
2019-02-19T08:21:08.624Z,9.10
2019-02-19T08:23:38.982Z,9.20
2019-02-19T08:26:09.539Z,9.20
2019-02-19T08:29:02.934Z,9.30
2019-02-19T08:31:26.669Z,9.30
2019-02-19T08:33:57.151Z,9.30
2019-02-19T08:36:29.587Z,9.40
2019-02-19T08:38:59.654Z,9.50
2019-02-19T08:41:30.005Z,9.50
2019-02-19T08:44:00.595Z,9.50
2019-02-19T08:46:31.679Z,9.50
2019-02-19T08:49:02.511Z,9.50
2019-02-19T08:51:32.881Z,9.60
2019-02-19T08:54:03.583Z,9.50
2019-02-19T08:56:33.967Z,9.60
2019-02-19T08:59:04.396Z,9.70
2019-02-19T09:01:34.756Z,9.70
2019-02-19T09:04:05.136Z,9.80
2019-02-19T09:06:35.462Z,9.90
2019-02-19T09:09:07.051Z,10.00
2019-02-19T09:11:38.765Z,10.10
2019-02-19T09:14:09.121Z,10.20
2019-02-19T09:16:39.566Z,10.30
2019-02-19T09:19:09.919Z,10.40
2019-02-19T09:21:40.309Z,10.50
2019-02-19T09:24:10.672Z,10.60
2019-02-19T09:26:41.003Z,10.70
2019-02-19T09:29:11.547Z,10.90
2019-02-19T09:31:41.914Z,11.00
2019-02-19T09:34:12.290Z,11.10
2019-02-19T09:36:42.629Z,11.20
2019-02-19T09:39:13.302Z,11.30
2019-02-19T09:41:43.636Z,11.40
2019-02-19T09:44:13.989Z,11.60
2019-02-19T09:46:44.349Z,11.70
2019-02-19T09:49:14.706Z,11.90
2019-02-19T09:51:45.575Z,12.10
2019-02-19T09:54:15.999Z,12.20
2019-02-19T09:56:46.326Z,12.30
2019-02-19T09:59:16.707Z,12.40
2019-02-19T10:01:47.111Z,12.40
2019-02-19T10:04:17.591Z,12.50
2019-02-19T10:06:48.013Z,12.60
2019-02-19T10:09:18.398Z,12.70
2019-02-19T10:11:48.754Z,12.80
2019-02-19T10:14:19.193Z,12.90
2019-02-19T10:16:49.518Z,12.80
2019-02-19T10:19:19.865Z,12.90
2019-02-19T10:21:50.220Z,12.90
2019-02-19T10:24:20.594Z,12.90
2019-02-19T10:26:50.921Z,12.80
2019-02-19T10:29:21.249Z,12.80
2019-02-19T10:31:51.645Z,12.80
2019-02-19T10:34:22.095Z,12.80
2019-02-19T10:36:52.435Z,12.80
2019-02-19T10:39:22.791Z,12.80
2019-02-19T10:41:53.113Z,12.90
2019-02-19T10:44:23.486Z,12.90
2019-02-19T10:46:53.857Z,12.90
2019-02-19T10:49:24.242Z,12.80
2019-02-19T10:51:54.568Z,12.80
2019-02-19T10:54:24.973Z,12.80
2019-02-19T10:56:55.336Z,12.80
2019-02-19T10:59:25.701Z,12.80
2019-02-19T11:01:56.043Z,12.90
2019-02-19T11:04:26.394Z,13.00
2019-02-19T11:06:56.769Z,13.10
2019-02-19T11:09:27.278Z,13.20
2019-02-19T11:11:58.142Z,13.20
2019-02-19T11:14:28.679Z,13.30
2019-02-19T11:16:59.014Z,13.30
2019-02-19T11:19:30.659Z,13.40
2019-02-19T11:22:01.009Z,13.50
2019-02-19T11:24:31.383Z,13.60
2019-02-19T11:27:01.701Z,13.70
2019-02-19T11:29:32.079Z,13.90
2019-02-19T11:32:04.181Z,14.10
2019-02-19T11:34:35.635Z,14.20
2019-02-19T11:37:06.046Z,14.30
2019-02-19T11:39:36.836Z,14.30
2019-02-19T11:42:07.212Z,14.40
2019-02-19T11:44:38.881Z,14.40
2019-02-19T11:47:09.282Z,14.30
2019-02-19T11:49:40.784Z,14.10
2019-02-19T11:52:11.153Z,14.10
2019-02-19T11:54:41.524Z,14.00
2019-02-19T11:57:12.105Z,13.80
2019-02-19T11:59:43.502Z,13.60
2019-02-19T12:02:16.015Z,13.40
2019-02-19T12:04:46.530Z,13.20
2019-02-19T12:07:16.892Z,13.00
2019-02-19T12:09:47.246Z,12.80
2019-02-19T12:12:17.587Z,12.60
2019-02-19T12:14:48.014Z,12.50
2019-02-19T12:17:18.352Z,12.40
2019-02-19T12:19:48.713Z,12.30
2019-02-19T12:22:19.084Z,12.30
2019-02-19T12:24:49.476Z,12.20
2019-02-19T12:27:19.795Z,12.20
2019-02-19T12:29:59.366Z,12.10
2019-02-19T12:32:33.508Z,12.10
2019-02-19T12:35:06.027Z,12.10
2019-02-19T12:37:38.773Z,12.00
2019-02-19T12:40:12.282Z,11.90
2019-02-19T12:42:45.349Z,11.90
2019-02-19T12:45:18.361Z,11.80
2019-02-19T12:47:50.748Z,11.80
2019-02-19T12:50:24.269Z,11.70
2019-02-19T12:52:57.156Z,11.70
2019-02-19T12:55:27.707Z,11.70
2019-02-19T12:57:58.054Z,11.70
2019-02-19T13:00:28.413Z,11.70
2019-02-19T13:02:58.749Z,11.70
2019-02-19T13:05:29.115Z,11.70
2019-02-19T13:07:59.446Z,11.70
2019-02-19T13:10:29.803Z,11.70
2019-02-19T13:13:00.231Z,11.70
2019-02-19T13:15:30.639Z,11.60
2019-02-19T13:18:00.974Z,11.60
2019-02-19T13:20:31.350Z,11.60
2019-02-19T13:23:01.721Z,11.50
2019-02-19T13:25:32.087Z,11.50
2019-02-19T13:28:02.413Z,11.50
2019-02-19T13:30:32.764Z,11.50
2019-02-19T13:33:03.098Z,11.50
2019-02-19T13:35:33.500Z,11.50
2019-02-19T13:38:03.817Z,11.50
2019-02-19T13:43:12.378Z,11.60
2019-02-19T13:45:42.753Z,11.70
2019-02-19T13:48:13.090Z,11.70
2019-02-19T13:50:43.463Z,11.80
2019-02-19T13:53:31.709Z,11.80
2019-02-19T13:56:03.260Z,11.90
2019-02-19T13:58:33.624Z,11.90
2019-02-19T14:01:04.082Z,12.00
2019-02-19T14:03:34.406Z,12.00
2019-02-19T14:06:04.818Z,12.10
2019-02-19T14:08:35.140Z,12.10
2019-02-19T14:11:05.846Z,12.10
2019-02-19T14:13:37.676Z,12.10
2019-02-19T14:16:33.263Z,12.10
2019-02-19T14:19:08.753Z,12.10
2019-02-19T14:22:04.792Z,12.10
2019-02-19T14:24:52.973Z,12.10
2019-02-19T14:27:57.717Z,12.10
2019-02-19T14:30:50.254Z,12.10
2019-02-19T14:33:48.541Z,12.10
2019-02-19T14:36:27.468Z,12.10
2019-02-19T14:39:12.439Z,12.20
2019-02-19T14:42:04.886Z,12.20
2019-02-19T14:45:03.073Z,12.10
2019-02-19T14:48:01.722Z,12.10
2019-02-19T14:50:53.966Z,12.10
2019-02-19T14:53:36.518Z,12.00
2019-02-19T14:56:34.859Z,12.00
2019-02-19T14:59:23.112Z,11.90
2019-02-19T15:02:21.539Z,11.90
2019-02-19T15:05:22.828Z,11.90
2019-02-19T15:08:14.485Z,11.80
2019-02-19T15:11:02.645Z,11.80
2019-02-19T15:13:51.963Z,11.80
2019-02-19T15:16:32.372Z,11.80
2019-02-19T15:19:20.002Z,11.80
2019-02-19T15:22:21.354Z,11.80
2019-02-19T15:25:09.655Z,11.80
2019-02-19T15:27:58.963Z,11.70
2019-02-19T15:30:46.826Z,11.70
2019-02-19T15:33:54.493Z,11.70
2019-02-19T15:36:42.487Z,11.70
2019-02-19T15:39:38.224Z,11.70
2019-02-19T15:42:36.404Z,11.70
2019-02-19T15:45:37.958Z,11.70
2019-02-19T15:48:27.257Z,11.70
2019-02-19T15:51:25.412Z,11.70
2019-02-19T15:54:10.701Z,11.70
2019-02-19T15:56:58.942Z,11.70
2019-02-19T15:59:47.315Z,11.70
2019-02-19T16:02:38.839Z,11.70
2019-02-19T16:05:28.279Z,11.70
2019-02-19T16:08:14.217Z,11.70
2019-02-19T16:10:50.953Z,11.70
2019-02-19T16:13:52.476Z,11.70
2019-02-19T16:16:42.604Z,11.70
2019-02-19T16:19:34.724Z,11.70
2019-02-19T16:22:42.313Z,11.70
2019-02-19T16:25:21.511Z,11.70
2019-02-19T16:28:19.081Z,11.70
2019-02-19T16:31:08.378Z,11.70
2019-02-19T16:33:56.691Z,11.60
2019-02-19T16:36:42.552Z,11.60
2019-02-19T16:39:37.671Z,11.50
2019-02-19T16:42:27.003Z,11.40
2019-02-19T16:45:23.292Z,11.30
2019-02-19T16:48:15.591Z,11.20
2019-02-19T16:50:56.327Z,11.00
2019-02-19T16:53:53.375Z,10.90
2019-02-19T16:56:35.745Z,10.70
2019-02-19T16:59:31.451Z,10.50
2019-02-19T17:02:17.578Z,10.30
2019-02-19T17:04:54.929Z,10.20
2019-02-19T17:07:34.189Z,10.10
2019-02-19T17:10:36.017Z,9.90
2019-02-19T17:13:25.436Z,9.80
2019-02-19T17:16:14.807Z,9.60
2019-02-19T17:18:55.411Z,9.50
2019-02-19T17:21:35.731Z,9.30
2019-02-19T17:24:32.389Z,9.20
2019-02-19T17:27:19.756Z,9.20
2019-02-19T17:30:18.546Z,9.10
2019-02-19T17:33:07.683Z,9.00
2019-02-19T17:36:03.240Z,8.90
2019-02-19T17:38:42.239Z,8.80
2019-02-19T17:41:18.807Z,8.70
2019-02-19T17:44:04.435Z,8.70
2019-02-19T17:46:52.888Z,8.60
2019-02-19T17:49:52.519Z,8.60
2019-02-19T17:52:37.586Z,8.60
2019-02-19T17:55:27.073Z,8.70
2019-02-19T17:58:12.463Z,8.70
2019-02-19T18:01:00.605Z,8.80
2019-02-19T18:03:56.063Z,8.90
2019-02-19T18:06:43.599Z,8.90
2019-02-19T18:09:33.858Z,8.90
2019-02-19T18:12:10.466Z,8.90
2019-02-19T18:14:58.674Z,8.90
2019-02-19T18:17:46.458Z,8.90
2019-02-19T18:20:18.546Z,8.80
2019-02-19T18:22:48.882Z,8.80
2019-02-19T18:25:19.220Z,8.70
2019-02-19T18:27:49.729Z,8.60
2019-02-19T18:30:21.950Z,8.60
2019-02-19T18:32:53.025Z,8.60
2019-02-19T18:35:23.392Z,8.60
2019-02-19T18:37:53.750Z,8.50
2019-02-19T18:40:24.123Z,8.50
2019-02-19T18:42:54.455Z,8.60
2019-02-19T18:45:24.869Z,8.60
2019-02-19T18:47:55.193Z,8.60
2019-02-19T18:50:25.574Z,8.70
2019-02-19T18:52:57.483Z,8.80
2019-02-19T18:55:27.853Z,8.80
2019-02-19T18:57:58.171Z,8.90
2019-02-19T19:00:28.517Z,8.90
2019-02-19T19:02:58.861Z,8.90
2019-02-19T19:05:29.845Z,8.80
2019-02-19T19:08:00.327Z,8.80
2019-02-19T19:10:30.678Z,8.70
2019-02-19T19:13:01.203Z,8.70
2019-02-19T19:15:32.844Z,8.60
2019-02-19T19:18:03.326Z,8.40
2019-02-19T19:20:33.717Z,8.40
2019-02-19T19:23:04.120Z,8.30
2019-02-19T19:25:34.917Z,8.20
2019-02-19T19:28:06.359Z,8.10
2019-02-19T19:30:36.731Z,8.10
2019-02-19T19:33:08.045Z,7.90
2019-02-19T19:35:40.487Z,7.70
2019-02-19T19:38:10.837Z,7.60
2019-02-19T19:40:41.283Z,7.40
2019-02-19T19:43:11.636Z,7.20
2019-02-19T19:45:43.136Z,7.10
2019-02-19T19:48:13.467Z,6.90
2019-02-19T19:50:43.817Z,6.80
2019-02-19T19:53:15.682Z,6.70
2019-02-19T19:55:46.026Z,6.60
2019-02-19T19:58:17.818Z,6.50
2019-02-19T20:00:48.193Z,6.40
2019-02-19T20:03:19.088Z,6.40
2019-02-19T20:05:49.997Z,6.30
2019-02-19T20:08:21.281Z,6.20
2019-02-19T20:10:51.875Z,6.10
2019-02-19T20:13:22.215Z,6.00
2019-02-19T20:15:52.648Z,6.00
2019-02-19T20:18:24.067Z,5.90
2019-02-19T20:20:55.559Z,5.80
2019-02-19T20:23:27.010Z,5.80
2019-02-19T20:25:58.251Z,5.70
2019-02-19T20:28:30.725Z,5.70
2019-02-19T20:31:02.692Z,5.60
2019-02-19T20:33:33.129Z,5.60
2019-02-19T20:36:03.551Z,5.60
2019-02-19T20:38:34.122Z,5.50
2019-02-19T20:41:04.564Z,5.40
2019-02-19T20:43:35.023Z,5.40
2019-02-19T20:46:06.126Z,5.30
2019-02-19T20:48:36.554Z,5.20
2019-02-19T20:51:06.936Z,5.20
2019-02-19T20:53:37.379Z,5.10
2019-02-19T20:56:07.887Z,5.10
2019-02-19T20:58:38.418Z,5.10
2019-02-19T21:01:08.865Z,5.10
2019-02-19T21:03:39.268Z,5.10
2019-02-19T21:06:10.352Z,5.10
2019-02-19T21:08:41.817Z,5.00
2019-02-19T21:11:15.759Z,4.90
2019-02-19T21:13:46.219Z,4.90
2019-02-19T21:16:18.236Z,4.80
2019-02-19T21:18:49.033Z,4.70
2019-02-19T21:21:19.386Z,4.70
2019-02-19T21:23:50.330Z,4.60
2019-02-19T21:26:22.030Z,4.60
2019-02-19T21:28:52.903Z,4.50
2019-02-19T21:31:23.448Z,4.50
2019-02-19T21:34:01.674Z,4.40
2019-02-19T21:36:35.448Z,4.40
2019-02-19T21:39:07.662Z,4.30
2019-02-19T21:41:39.952Z,4.30
2019-02-19T21:44:12.845Z,4.30
2019-02-19T21:46:44.840Z,4.30
2019-02-19T21:49:16.540Z,4.20
2019-02-19T21:51:53.893Z,4.20
2019-02-19T21:54:19.290Z,4.20
2019-02-19T21:56:50.011Z,4.20
2019-02-19T21:59:22.583Z,4.10
2019-02-19T22:01:52.811Z,4.10
2019-02-19T22:04:25.746Z,4.10
2019-02-19T22:06:56.115Z,4.10
2019-02-19T22:09:28.715Z,4.10
2019-02-19T22:11:59.092Z,4.00
2019-02-19T22:14:29.419Z,4.00
2019-02-19T22:16:59.775Z,4.00
2019-02-19T22:19:30.139Z,3.90
2019-02-19T22:22:13.188Z,3.90
2019-02-19T22:24:43.628Z,3.90
2019-02-19T22:27:14.065Z,3.80
2019-02-19T22:29:44.449Z,3.80
2019-02-19T22:32:17.026Z,3.70
2019-02-19T22:34:47.370Z,3.70
2019-02-19T22:37:17.741Z,3.70
2019-02-19T22:39:48.124Z,3.60
2019-02-19T22:42:18.588Z,3.60
2019-02-19T22:44:48.910Z,3.60
2019-02-19T22:47:19.278Z,3.50
2019-02-19T22:49:49.611Z,3.50
2019-02-19T22:52:19.970Z,3.40
2019-02-19T22:54:59.383Z,3.40
2019-02-19T22:57:29.748Z,3.40
2019-02-19T23:00:01.649Z,3.40
2019-02-19T23:02:33.828Z,3.30
2019-02-19T23:05:04.653Z,3.30
2019-02-19T23:07:35.981Z,3.30
2019-02-19T23:10:06.908Z,3.30
2019-02-19T23:12:37.665Z,3.30
2019-02-19T23:15:08.086Z,3.30
2019-02-19T23:17:40.089Z,3.30
2019-02-19T23:20:11.044Z,3.30
2019-02-19T23:22:41.492Z,3.20
2019-02-19T23:25:11.862Z,3.20
2019-02-19T23:27:42.319Z,3.20
2019-02-19T23:30:13.099Z,3.20
2019-02-19T23:32:45.293Z,3.10
2019-02-19T23:35:24.985Z,3.10
2019-02-19T23:37:55.639Z,3.10
2019-02-19T23:40:26.346Z,3.10
2019-02-19T23:42:56.869Z,3.00
2019-02-19T23:45:29.881Z,3.00
2019-02-19T23:48:00.543Z,2.90
2019-02-19T23:50:31.883Z,2.90
2019-02-19T23:53:02.398Z,2.80
2019-02-19T23:55:33.061Z,2.80
2019-02-19T23:58:04.811Z,2.70
